sensor_id;sensor_type;location;lat;lon;timestamp;temperature;humidity
19646;DHT22;9971;52.446;13.452;2023-05-10T00:02:19;14.40;92.20
19646;DHT22;9971;52.446;13.452;2023-05-10T00:07:21;14.30;92.60
19646;DHT22;9971;52.446;13.452;2023-05-10T00:12:23;14.20;93.40
19646;DHT22;9971;52.446;13.452;2023-05-10T00:17:26;14.20;93.50
19646;DHT22;9971;52.446;13.452;2023-05-10T00:22:28;14.10;94.10
19646;DHT22;9971;52.446;13.452;2023-05-10T00:27:31;14.00;94.60
19646;DHT22;9971;52.446;13.452;2023-05-10T00:32:33;13.90;95.30
19646;DHT22;9971;52.446;13.452;2023-05-10T00:37:35;13.80;95.70
19646;DHT22;9971;52.446;13.452;2023-05-10T00:42:38;13.60;96.90
19646;DHT22;9971;52.446;13.452;2023-05-10T00:47:40;13.50;97.50
19646;DHT22;9971;52.446;13.452;2023-05-10T00:52:42;13.40;98.00
19646;DHT22;9971;52.446;13.452;2023-05-10T00:57:44;13.40;98.40
19646;DHT22;9971;52.446;13.452;2023-05-10T01:02:47;13.30;98.70
19646;DHT22;9971;52.446;13.452;2023-05-10T01:07:49;13.30;99.20
19646;DHT22;9971;52.446;13.452;2023-05-10T01:12:51;13.20;99.80
19646;DHT22;9971;52.446;13.452;2023-05-10T01:17:53;13.20;99.90
19646;DHT22;9971;52.446;13.452;2023-05-10T01:23:10;13.20;99.90
19646;DHT22;9971;52.446;13.452;2023-05-10T01:33:28;13.10;99.90
19646;DHT22;9971;52.446;13.452;2023-05-10T01:39:06;13.10;99.90
19646;DHT22;9971;52.446;13.452;2023-05-10T01:43:55;13.00;99.90
19646;DHT22;9971;52.446;13.452;2023-05-10T01:48:55;12.90;99.90
19646;DHT22;9971;52.446;13.452;2023-05-10T01:53:59;12.80;99.90
19646;DHT22;9971;52.446;13.452;2023-05-10T01:59:00;12.80;99.90
19646;DHT22;9971;52.446;13.452;2023-05-10T02:04:02;12.70;99.90
19646;DHT22;9971;52.446;13.452;2023-05-10T02:09:04;12.60;99.90
19646;DHT22;9971;52.446;13.452;2023-05-10T02:14:07;12.60;99.90
19646;DHT22;9971;52.446;13.452;2023-05-10T02:19:08;12.50;99.90
19646;DHT22;9971;52.446;13.452;2023-05-10T02:24:11;12.50;99.90
19646;DHT22;9971;52.446;13.452;2023-05-10T02:29:13;12.40;99.90
19646;DHT22;9971;52.446;13.452;2023-05-10T02:34:15;12.40;99.90
19646;DHT22;9971;52.446;13.452;2023-05-10T02:39:18;12.30;99.90
19646;DHT22;9971;52.446;13.452;2023-05-10T02:44:19;12.20;99.90
19646;DHT22;9971;52.446;13.452;2023-05-10T02:49:22;12.20;99.90
19646;DHT22;9971;52.446;13.452;2023-05-10T02:54:27;12.10;99.90
19646;DHT22;9971;52.446;13.452;2023-05-10T02:59:27;12.00;99.90
19646;DHT22;9971;52.446;13.452;2023-05-10T03:04:29;12.00;99.90
19646;DHT22;9971;52.446;13.452;2023-05-10T03:09:32;12.00;99.90
19646;DHT22;9971;52.446;13.452;2023-05-10T03:14:36;12.00;99.90
19646;DHT22;9971;52.446;13.452;2023-05-10T03:19:40;11.90;99.90
19646;DHT22;9971;52.446;13.452;2023-05-10T03:24:39;11.90;99.90
19646;DHT22;9971;52.446;13.452;2023-05-10T03:29:42;11.90;99.90
19646;DHT22;9971;52.446;13.452;2023-05-10T03:34:44;11.80;99.90
19646;DHT22;9971;52.446;13.452;2023-05-10T03:39:46;11.90;99.90
19646;DHT22;9971;52.446;13.452;2023-05-10T03:44:49;11.90;99.90
19646;DHT22;9971;52.446;13.452;2023-05-10T03:49:51;11.90;99.90
19646;DHT22;9971;52.446;13.452;2023-05-10T03:54:54;11.90;99.90
19646;DHT22;9971;52.446;13.452;2023-05-10T03:59:56;11.90;99.90
19646;DHT22;9971;52.446;13.452;2023-05-10T04:04:59;11.90;99.90
19646;DHT22;9971;52.446;13.452;2023-05-10T04:10:01;11.90;99.90
19646;DHT22;9971;52.446;13.452;2023-05-10T04:15:04;12.00;99.90
19646;DHT22;9971;52.446;13.452;2023-05-10T04:20:07;12.00;99.90
19646;DHT22;9971;52.446;13.452;2023-05-10T04:25:10;12.00;99.90
19646;DHT22;9971;52.446;13.452;2023-05-10T04:30:13;12.10;99.90
19646;DHT22;9971;52.446;13.452;2023-05-10T04:35:15;12.10;99.90
19646;DHT22;9971;52.446;13.452;2023-05-10T04:40:18;12.10;99.90
19646;DHT22;9971;52.446;13.452;2023-05-10T04:45:20;12.20;99.90
19646;DHT22;9971;52.446;13.452;2023-05-10T04:50:23;12.40;99.90
19646;DHT22;9971;52.446;13.452;2023-05-10T04:55:25;12.50;99.90
19646;DHT22;9971;52.446;13.452;2023-05-10T05:00:28;12.60;99.90
19646;DHT22;9971;52.446;13.452;2023-05-10T05:05:30;12.80;99.90
19646;DHT22;9971;52.446;13.452;2023-05-10T05:10:32;13.00;99.90
19646;DHT22;9971;52.446;13.452;2023-05-10T05:15:35;13.20;99.90
19646;DHT22;9971;52.446;13.452;2023-05-10T05:20:37;13.30;99.90
19646;DHT22;9971;52.446;13.452;2023-05-10T05:25:40;13.50;99.90
19646;DHT22;9971;52.446;13.452;2023-05-10T05:30:42;13.70;99.90
19646;DHT22;9971;52.446;13.452;2023-05-10T05:35:45;13.90;99.90
19646;DHT22;9971;52.446;13.452;2023-05-10T05:40:47;14.00;99.90
19646;DHT22;9971;52.446;13.452;2023-05-10T05:45:49;14.10;99.90
19646;DHT22;9971;52.446;13.452;2023-05-10T05:50:54;14.20;99.90
19646;DHT22;9971;52.446;13.452;2023-05-10T05:55:57;14.30;99.90
19646;DHT22;9971;52.446;13.452;2023-05-10T06:00:58;14.50;99.90
19646;DHT22;9971;52.446;13.452;2023-05-10T06:06:01;14.60;99.90
19646;DHT22;9971;52.446;13.452;2023-05-10T06:11:03;14.80;99.90
19646;DHT22;9971;52.446;13.452;2023-05-10T06:16:06;14.90;99.90
19646;DHT22;9971;52.446;13.452;2023-05-10T06:21:08;15.10;99.90
19646;DHT22;9971;52.446;13.452;2023-05-10T06:26:11;15.20;99.90
19646;DHT22;9971;52.446;13.452;2023-05-10T06:31:13;15.40;99.90
19646;DHT22;9971;52.446;13.452;2023-05-10T06:36:16;15.50;99.90
19646;DHT22;9971;52.446;13.452;2023-05-10T06:41:18;15.70;99.90
19646;DHT22;9971;52.446;13.452;2023-05-10T06:46:21;15.80;99.90
19646;DHT22;9971;52.446;13.452;2023-05-10T06:51:23;16.10;99.90
19646;DHT22;9971;52.446;13.452;2023-05-10T06:56:26;16.30;99.90
19646;DHT22;9971;52.446;13.452;2023-05-10T07:01:28;16.30;99.90
19646;DHT22;9971;52.446;13.452;2023-05-10T07:06:30;16.40;99.90
19646;DHT22;9971;52.446;13.452;2023-05-10T07:11:33;16.50;99.90
19646;DHT22;9971;52.446;13.452;2023-05-10T07:16:35;16.60;99.90
19646;DHT22;9971;52.446;13.452;2023-05-10T07:21:38;16.70;99.90
19646;DHT22;9971;52.446;13.452;2023-05-10T07:26:40;16.80;99.90
19646;DHT22;9971;52.446;13.452;2023-05-10T07:31:43;16.90;99.90
19646;DHT22;9971;52.446;13.452;2023-05-10T07:36:45;17.00;99.90
19646;DHT22;9971;52.446;13.452;2023-05-10T07:41:48;17.10;99.90
19646;DHT22;9971;52.446;13.452;2023-05-10T07:46:50;17.30;99.90
19646;DHT22;9971;52.446;13.452;2023-05-10T07:51:52;17.40;99.90
19646;DHT22;9971;52.446;13.452;2023-05-10T07:56:55;17.50;99.90
19646;DHT22;9971;52.446;13.452;2023-05-10T08:01:58;17.70;99.80
19646;DHT22;9971;52.446;13.452;2023-05-10T08:07:00;17.90;98.90
19646;DHT22;9971;52.446;13.452;2023-05-10T08:12:03;18.20;99.40
19646;DHT22;9971;52.446;13.452;2023-05-10T08:17:05;18.40;98.90
19646;DHT22;9971;52.446;13.452;2023-05-10T08:22:08;18.60;97.20
19646;DHT22;9971;52.446;13.452;2023-05-10T08:27:10;18.80;97.90
19646;DHT22;9971;52.446;13.452;2023-05-10T08:32:13;18.90;96.70
19646;DHT22;9971;52.446;13.452;2023-05-10T08:37:15;19.10;96.80
19646;DHT22;9971;52.446;13.452;2023-05-10T08:42:19;19.30;95.60
19646;DHT22;9971;52.446;13.452;2023-05-10T08:47:19;19.40;95.60
19646;DHT22;9971;52.446;13.452;2023-05-10T08:52:21;19.40;95.30
19646;DHT22;9971;52.446;13.452;2023-05-10T08:57:23;19.80;94.70
19646;DHT22;9971;52.446;13.452;2023-05-10T09:02:25;19.80;94.30
19646;DHT22;9971;52.446;13.452;2023-05-10T09:07:30;19.80;93.70
19646;DHT22;9971;52.446;13.452;2023-05-10T09:12:32;20.10;93.90
19646;DHT22;9971;52.446;13.452;2023-05-10T09:17:34;20.40;94.10
19646;DHT22;9971;52.446;13.452;2023-05-10T09:22:37;20.50;92.50
19646;DHT22;9971;52.446;13.452;2023-05-10T09:27:39;20.80;93.00
19646;DHT22;9971;52.446;13.452;2023-05-10T09:32:41;21.00;91.60
19646;DHT22;9971;52.446;13.452;2023-05-10T09:37:45;21.30;91.30
19646;DHT22;9971;52.446;13.452;2023-05-10T09:42:54;21.40;91.00
19646;DHT22;9971;52.446;13.452;2023-05-10T09:47:55;21.60;90.30
19646;DHT22;9971;52.446;13.452;2023-05-10T09:52:58;21.90;88.80
19646;DHT22;9971;52.446;13.452;2023-05-10T09:58:00;22.10;87.80
19646;DHT22;9971;52.446;13.452;2023-05-10T10:03:01;22.20;86.30
19646;DHT22;9971;52.446;13.452;2023-05-10T10:08:04;22.30;85.20
19646;DHT22;9971;52.446;13.452;2023-05-10T10:13:06;22.50;84.70
19646;DHT22;9971;52.446;13.452;2023-05-10T10:18:07;22.60;83.80
19646;DHT22;9971;52.446;13.452;2023-05-10T10:23:10;22.70;84.00
19646;DHT22;9971;52.446;13.452;2023-05-10T10:28:23;23.00;82.50
19646;DHT22;9971;52.446;13.452;2023-05-10T10:33:40;23.20;79.70
19646;DHT22;9971;52.446;13.452;2023-05-10T10:39:01;23.30;80.80
19646;DHT22;9971;52.446;13.452;2023-05-10T10:49:17;23.90;78.40
19646;DHT22;9971;52.446;13.452;2023-05-10T10:54:28;24.10;75.20
19646;DHT22;9971;52.446;13.452;2023-05-10T10:59:27;24.10;75.00
19646;DHT22;9971;52.446;13.452;2023-05-10T11:04:31;24.30;73.10
19646;DHT22;9971;52.446;13.452;2023-05-10T11:09:36;24.20;71.50
19646;DHT22;9971;52.446;13.452;2023-05-10T11:14:34;24.40;70.70
19646;DHT22;9971;52.446;13.452;2023-05-10T11:19:36;24.50;73.10
19646;DHT22;9971;52.446;13.452;2023-05-10T11:24:38;24.80;71.20
19646;DHT22;9971;52.446;13.452;2023-05-10T11:29:41;25.10;70.50
19646;DHT22;9971;52.446;13.452;2023-05-10T11:34:46;25.30;69.70
19646;DHT22;9971;52.446;13.452;2023-05-10T11:39:45;25.50;68.10
19646;DHT22;9971;52.446;13.452;2023-05-10T11:44:47;25.70;66.70
19646;DHT22;9971;52.446;13.452;2023-05-10T11:49:49;25.40;66.20
19646;DHT22;9971;52.446;13.452;2023-05-10T11:54:52;25.80;65.70
19646;DHT22;9971;52.446;13.452;2023-05-10T11:59:54;26.30;64.30
19646;DHT22;9971;52.446;13.452;2023-05-10T12:04:55;26.30;63.00
19646;DHT22;9971;52.446;13.452;2023-05-10T12:10:13;26.30;60.90
19646;DHT22;9971;52.446;13.452;2023-05-10T12:15:20;26.10;61.90
19646;DHT22;9971;52.446;13.452;2023-05-10T12:20:22;26.70;60.90
19646;DHT22;9971;52.446;13.452;2023-05-10T12:25:24;26.40;62.70
19646;DHT22;9971;52.446;13.452;2023-05-10T12:30:26;26.50;63.00
19646;DHT22;9971;52.446;13.452;2023-05-10T12:35:30;26.70;61.60
19646;DHT22;9971;52.446;13.452;2023-05-10T12:40:32;26.80;60.90
19646;DHT22;9971;52.446;13.452;2023-05-10T12:45:34;27.10;60.20
19646;DHT22;9971;52.446;13.452;2023-05-10T12:50:37;27.00;60.90
19646;DHT22;9971;52.446;13.452;2023-05-10T12:55:39;27.40;59.70
19646;DHT22;9971;52.446;13.452;2023-05-10T13:00:42;27.80;58.90
19646;DHT22;9971;52.446;13.452;2023-05-10T13:05:44;28.00;59.20
19646;DHT22;9971;52.446;13.452;2023-05-10T13:10:46;27.90;57.40
19646;DHT22;9971;52.446;13.452;2023-05-10T13:15:49;28.20;57.40
19646;DHT22;9971;52.446;13.452;2023-05-10T13:20:51;28.20;57.80
19646;DHT22;9971;52.446;13.452;2023-05-10T13:25:54;28.10;55.40
19646;DHT22;9971;52.446;13.452;2023-05-10T13:30:57;28.10;55.20
19646;DHT22;9971;52.446;13.452;2023-05-10T13:35:59;28.20;55.80
19646;DHT22;9971;52.446;13.452;2023-05-10T13:41:02;28.40;56.00
19646;DHT22;9971;52.446;13.452;2023-05-10T13:46:04;28.50;53.90
19646;DHT22;9971;52.446;13.452;2023-05-10T13:51:07;28.60;53.10
19646;DHT22;9971;52.446;13.452;2023-05-10T13:56:11;28.50;54.00
19646;DHT22;9971;52.446;13.452;2023-05-10T14:01:17;28.40;52.90
19646;DHT22;9971;52.446;13.452;2023-05-10T14:06:22;28.60;53.60
19646;DHT22;9971;52.446;13.452;2023-05-10T14:11:26;28.80;51.00
19646;DHT22;9971;52.446;13.452;2023-05-10T14:16:28;28.40;48.70
19646;DHT22;9971;52.446;13.452;2023-05-10T14:21:31;28.40;50.50
19646;DHT22;9971;52.446;13.452;2023-05-10T14:26:34;28.30;51.40
19646;DHT22;9971;52.446;13.452;2023-05-10T14:31:37;28.40;52.40
19646;DHT22;9971;52.446;13.452;2023-05-10T14:36:40;28.70;51.00
19646;DHT22;9971;52.446;13.452;2023-05-10T14:41:43;28.60;51.70
19646;DHT22;9971;52.446;13.452;2023-05-10T14:46:45;28.60;51.30
19646;DHT22;9971;52.446;13.452;2023-05-10T14:51:48;28.70;51.50
19646;DHT22;9971;52.446;13.452;2023-05-10T14:56:50;28.50;51.80
19646;DHT22;9971;52.446;13.452;2023-05-10T15:01:53;28.80;52.90
19646;DHT22;9971;52.446;13.452;2023-05-10T15:06:55;28.60;50.90
19646;DHT22;9971;52.446;13.452;2023-05-10T15:11:58;28.10;51.30
19646;DHT22;9971;52.446;13.452;2023-05-10T15:17:00;28.10;52.00
19646;DHT22;9971;52.446;13.452;2023-05-10T15:22:04;27.90;51.40
19646;DHT22;9971;52.446;13.452;2023-05-10T15:27:05;27.30;52.60
19646;DHT22;9971;52.446;13.452;2023-05-10T15:32:08;26.80;54.60
19646;DHT22;9971;52.446;13.452;2023-05-10T15:37:10;26.50;55.00
19646;DHT22;9971;52.446;13.452;2023-05-10T15:42:13;26.40;55.70
19646;DHT22;9971;52.446;13.452;2023-05-10T15:47:15;26.20;55.40
19646;DHT22;9971;52.446;13.452;2023-05-10T15:52:17;25.90;55.70
19646;DHT22;9971;52.446;13.452;2023-05-10T15:57:20;25.70;56.50
19646;DHT22;9971;52.446;13.452;2023-05-10T16:02:23;25.60;57.00
19646;DHT22;9971;52.446;13.452;2023-05-10T16:07:25;25.40;58.60
19646;DHT22;9971;52.446;13.452;2023-05-10T16:12:27;25.50;57.70
19646;DHT22;9971;52.446;13.452;2023-05-10T16:17:30;25.30;58.50
19646;DHT22;9971;52.446;13.452;2023-05-10T16:22:33;25.10;58.50
19646;DHT22;9971;52.446;13.452;2023-05-10T16:27:35;24.80;60.00
19646;DHT22;9971;52.446;13.452;2023-05-10T16:32:37;24.60;59.50
19646;DHT22;9971;52.446;13.452;2023-05-10T16:37:40;24.20;75.40
19646;DHT22;9971;52.446;13.452;2023-05-10T16:42:42;24.20;79.50
19646;DHT22;9971;52.446;13.452;2023-05-10T16:47:45;24.20;82.30
19646;DHT22;9971;52.446;13.452;2023-05-10T16:52:47;24.30;82.30
19646;DHT22;9971;52.446;13.452;2023-05-10T16:57:50;24.00;84.80
19646;DHT22;9971;52.446;13.452;2023-05-10T17:02:52;23.70;87.10
19646;DHT22;9971;52.446;13.452;2023-05-10T17:07:54;23.40;89.50
19646;DHT22;9971;52.446;13.452;2023-05-10T17:12:56;23.20;91.10
19646;DHT22;9971;52.446;13.452;2023-05-10T17:17:59;22.90;92.20
19646;DHT22;9971;52.446;13.452;2023-05-10T17:23:02;22.80;93.70
19646;DHT22;9971;52.446;13.452;2023-05-10T17:28:05;22.60;94.40
19646;DHT22;9971;52.446;13.452;2023-05-10T17:33:07;22.60;95.20
19646;DHT22;9971;52.446;13.452;2023-05-10T17:38:10;22.60;95.50
19646;DHT22;9971;52.446;13.452;2023-05-10T17:43:12;22.70;95.80
19646;DHT22;9971;52.446;13.452;2023-05-10T17:48:15;22.80;96.20
19646;DHT22;9971;52.446;13.452;2023-05-10T17:53:17;23.00;96.30
19646;DHT22;9971;52.446;13.452;2023-05-10T17:58:20;23.10;96.40
19646;DHT22;9971;52.446;13.452;2023-05-10T18:03:22;23.20;96.40
19646;DHT22;9971;52.446;13.452;2023-05-10T18:08:25;23.30;96.30
19646;DHT22;9971;52.446;13.452;2023-05-10T18:13:28;23.40;96.20
19646;DHT22;9971;52.446;13.452;2023-05-10T18:18:30;23.50;96.10
19646;DHT22;9971;52.446;13.452;2023-05-10T18:23:33;23.50;96.00
19646;DHT22;9971;52.446;13.452;2023-05-10T18:28:36;23.60;95.80
19646;DHT22;9971;52.446;13.452;2023-05-10T18:33:38;23.60;95.70
19646;DHT22;9971;52.446;13.452;2023-05-10T18:38:41;23.60;95.70
19646;DHT22;9971;52.446;13.452;2023-05-10T18:43:43;23.60;95.30
19646;DHT22;9971;52.446;13.452;2023-05-10T18:48:47;23.70;95.10
19646;DHT22;9971;52.446;13.452;2023-05-10T18:53:50;23.70;95.00
19646;DHT22;9971;52.446;13.452;2023-05-10T18:58:52;23.70;94.90
19646;DHT22;9971;52.446;13.452;2023-05-10T19:03:55;23.70;94.70
19646;DHT22;9971;52.446;13.452;2023-05-10T19:08:58;23.80;94.70
19646;DHT22;9971;52.446;13.452;2023-05-10T19:14:00;23.80;94.60
19646;DHT22;9971;52.446;13.452;2023-05-10T19:19:02;23.80;94.50
19646;DHT22;9971;52.446;13.452;2023-05-10T19:24:05;23.80;94.20
19646;DHT22;9971;52.446;13.452;2023-05-10T19:29:08;23.80;94.10
19646;DHT22;9971;52.446;13.452;2023-05-10T19:34:10;23.80;93.90
19646;DHT22;9971;52.446;13.452;2023-05-10T19:39:13;23.80;93.80
19646;DHT22;9971;52.446;13.452;2023-05-10T19:44:15;23.80;93.70
19646;DHT22;9971;52.446;13.452;2023-05-10T19:49:18;23.90;93.60
19646;DHT22;9971;52.446;13.452;2023-05-10T19:54:20;23.90;93.60
19646;DHT22;9971;52.446;13.452;2023-05-10T19:59:23;23.90;93.90
19646;DHT22;9971;52.446;13.452;2023-05-10T20:04:26;23.80;93.50
19646;DHT22;9971;52.446;13.452;2023-05-10T20:09:28;23.80;93.40
19646;DHT22;9971;52.446;13.452;2023-05-10T20:14:31;23.80;93.40
19646;DHT22;9971;52.446;13.452;2023-05-10T20:19:33;23.80;93.40
19646;DHT22;9971;52.446;13.452;2023-05-10T20:24:36;23.90;93.40
19646;DHT22;9971;52.446;13.452;2023-05-10T20:29:39;23.90;93.40
19646;DHT22;9971;52.446;13.452;2023-05-10T20:34:41;23.90;93.70
19646;DHT22;9971;52.446;13.452;2023-05-10T20:39:44;23.90;93.40
19646;DHT22;9971;52.446;13.452;2023-05-10T20:44:46;23.90;93.40
19646;DHT22;9971;52.446;13.452;2023-05-10T20:49:48;23.90;93.40
19646;DHT22;9971;52.446;13.452;2023-05-10T20:54:51;23.90;93.80
19646;DHT22;9971;52.446;13.452;2023-05-10T20:59:53;23.90;93.50
19646;DHT22;9971;52.446;13.452;2023-05-10T21:04:56;23.90;93.50
19646;DHT22;9971;52.446;13.452;2023-05-10T21:09:58;23.90;93.50
19646;DHT22;9971;52.446;13.452;2023-05-10T21:15:01;23.90;93.50
19646;DHT22;9971;52.446;13.452;2023-05-10T21:20:03;23.90;93.60
19646;DHT22;9971;52.446;13.452;2023-05-10T21:25:06;23.90;93.60
19646;DHT22;9971;52.446;13.452;2023-05-10T21:30:12;23.90;93.60
19646;DHT22;9971;52.446;13.452;2023-05-10T21:35:15;23.90;93.70
19646;DHT22;9971;52.446;13.452;2023-05-10T21:40:17;23.90;93.70
19646;DHT22;9971;52.446;13.452;2023-05-10T21:45:20;23.80;93.70
19646;DHT22;9971;52.446;13.452;2023-05-10T21:50:22;23.80;93.70
19646;DHT22;9971;52.446;13.452;2023-05-10T21:55:25;23.90;93.70
19646;DHT22;9971;52.446;13.452;2023-05-10T22:00:28;23.80;93.70
19646;DHT22;9971;52.446;13.452;2023-05-10T22:05:30;23.80;94.10
19646;DHT22;9971;52.446;13.452;2023-05-10T22:10:33;23.80;93.80
19646;DHT22;9971;52.446;13.452;2023-05-10T22:15:35;23.90;93.80
19646;DHT22;9971;52.446;13.452;2023-05-10T22:20:38;23.10;95.40
19646;DHT22;9971;52.446;13.452;2023-05-10T22:25:41;19.80;99.90
19646;DHT22;9971;52.446;13.452;2023-05-10T22:55:43;18.20;99.90
19646;DHT22;9971;52.446;13.452;2023-05-10T23:00:46;20.40;99.90
19646;DHT22;9971;52.446;13.452;2023-05-10T23:05:48;18.60;99.90
19646;DHT22;9971;52.446;13.452;2023-05-10T23:10:51;17.60;99.90
19646;DHT22;9971;52.446;13.452;2023-05-10T23:15:53;17.00;99.90
19646;DHT22;9971;52.446;13.452;2023-05-10T23:20:56;16.50;99.90
19646;DHT22;9971;52.446;13.452;2023-05-10T23:25:58;16.10;99.90
19646;DHT22;9971;52.446;13.452;2023-05-10T23:31:00;15.90;99.90
19646;DHT22;9971;52.446;13.452;2023-05-10T23:36:03;15.70;99.90
19646;DHT22;9971;52.446;13.452;2023-05-10T23:41:05;15.60;99.90
19646;DHT22;9971;52.446;13.452;2023-05-10T23:46:08;15.50;99.90
19646;DHT22;9971;52.446;13.452;2023-05-10T23:51:10;15.40;99.90
